Time;durP1;ratioP1;P1;durP2;ratioP2;P2;SDS_P1;SDS_P2;PMS_P1;PMS_P2;Temp;Humidity;BMP_temperature;BMP_pressure;BME280_temperature;BME280_humidity;BME280_pressure;Samples;Min_cycle;Max_cycle;Signal;HPM_P1;HPM_P2
2021/08/26 00:07:37;;;;;;;5.75;2.22;;;15.50;99.90;;;;;;12504131;28;20041;-37
2021/08/26 00:13:45;;;;;;;8.70;2.30;;;15.50;99.90;;;;;;12508547;28;20073;-37
2021/08/26 00:19:50;;;;;;;5.88;2.40;;;15.60;99.90;;;;;;12509386;28;20140;-37
2021/08/26 00:25:54;;;;;;;8.25;2.90;;;15.60;99.90;;;;;;12509216;28;20144;-38
2021/08/26 00:31:57;;;;;;;12.48;2.47;;;15.50;99.90;;;;;;12515806;28;20094;-37
2021/08/26 00:37:59;;;;;;;6.40;3.03;;;15.50;99.90;;;;;;12513452;28;20085;-37
2021/08/26 00:44:02;;;;;;;10.50;2.70;;;15.40;99.90;;;;;;12515977;28;20470;-37
2021/08/26 00:50:07;;;;;;;6.25;2.60;;;15.40;99.90;;;;;;12511758;28;20041;-37
2021/08/26 00:56:16;;;;;;;7.32;2.58;;;15.40;99.90;;;;;;12503130;28;20532;-38
2021/08/26 01:02:45;;;;;;;7.97;2.10;;;15.40;99.90;;;;;;12514270;28;20789;-37
2021/08/26 01:08:51;;;;;;;13.13;2.50;;;15.40;99.90;;;;;;12500392;28;20114;-37
2021/08/26 01:14:55;;;;;;;9.57;2.22;;;15.40;99.90;;;;;;12500181;28;20049;-38
2021/08/26 01:20:58;;;;;;;6.43;2.20;;;15.40;99.90;;;;;;12502662;28;20053;-37
2021/08/26 01:27:01;;;;;;;8.88;2.28;;;15.40;99.90;;;;;;12484129;28;20535;-39
2021/08/26 01:33:04;;;;;;;9.57;2.47;;;15.30;99.90;;;;;;12497908;28;20146;-37
2021/08/26 01:39:09;;;;;;;8.30;2.88;;;15.30;99.90;;;;;;12482915;28;20057;-37
2021/08/26 01:45:11;;;;;;;10.90;2.55;;;15.40;99.90;;;;;;12500227;28;20139;-37
2021/08/26 01:51:13;;;;;;;14.55;2.65;;;15.30;99.90;;;;;;12512456;28;20082;-38
2021/08/26 01:57:16;;;;;;;7.10;2.78;;;15.20;99.90;;;;;;12503100;28;20072;-37
2021/08/26 02:03:19;;;;;;;9.17;2.50;;;15.40;99.90;;;;;;12496802;28;20228;-37
2021/08/26 02:09:21;;;;;;;12.02;2.75;;;15.30;99.90;;;;;;12493750;28;20056;-37
2021/08/26 02:15:23;;;;;;;16.85;3.50;;;15.20;99.90;;;;;;12503501;28;20057;-37
2021/08/26 02:21:28;;;;;;;13.55;2.90;;;15.20;99.90;;;;;;12497473;28;20056;-37
2021/08/26 02:27:30;;;;;;;12.95;2.50;;;15.10;99.90;;;;;;12504406;28;20049;-37
2021/08/26 02:33:32;;;;;;;11.45;2.67;;;15.10;99.90;;;;;;12487798;28;20067;-38
2021/08/26 02:39:34;;;;;;;13.00;2.50;;;15.10;99.90;;;;;;12491835;28;20107;-38
2021/08/26 02:45:36;;;;;;;12.80;2.50;;;15.00;99.90;;;;;;12475010;28;20075;-38
2021/08/26 02:51:38;;;;;;;10.10;2.58;;;14.90;99.90;;;;;;12489471;28;20052;-37
2021/08/26 02:57:40;;;;;;;14.90;3.03;;;15.00;99.90;;;;;;12495529;28;20053;-37
2021/08/26 03:03:42;;;;;;;13.70;3.38;;;14.90;99.90;;;;;;12485581;28;20098;-37
2021/08/26 03:09:46;;;;;;;13.17;2.80;;;14.80;99.90;;;;;;12497523;28;20100;-37
2021/08/26 03:15:47;;;;;;;13.32;2.75;;;14.90;99.90;;;;;;12500233;28;20052;-37
2021/08/26 03:21:49;;;;;;;11.70;2.83;;;14.90;99.90;;;;;;12490089;28;20048;-38
2021/08/26 03:27:53;;;;;;;16.70;3.22;;;14.80;99.90;;;;;;12493190;28;20045;-37
2021/08/26 03:33:56;;;;;;;14.93;3.50;;;14.80;99.90;;;;;;12495964;28;20049;-37
2021/08/26 03:39:58;;;;;;;13.18;2.78;;;15.00;99.90;;;;;;12487794;28;20156;-38
2021/08/26 03:46:00;;;;;;;13.60;2.78;;;14.90;99.90;;;;;;12490661;28;20050;-38
2021/08/26 03:52:03;;;;;;;17.60;3.58;;;14.80;99.90;;;;;;12498333;28;20095;-37
2021/08/26 03:58:05;;;;;;;14.38;2.85;;;14.90;99.90;;;;;;12491642;28;20053;-37
2021/08/26 04:04:07;;;;;;;11.43;3.03;;;14.90;99.90;;;;;;12493385;28;20052;-37
2021/08/26 04:10:09;;;;;;;13.50;3.03;;;14.90;99.90;;;;;;12497607;28;20077;-38
2021/08/26 04:16:15;;;;;;;13.23;2.67;;;14.90;99.90;;;;;;12493694;28;20063;-38
2021/08/26 04:22:20;;;;;;;15.23;3.17;;;14.80;99.90;;;;;;12491076;28;20128;-37
2021/08/26 04:28:23;;;;;;;16.35;2.92;;;14.70;99.90;;;;;;12483414;28;20549;-37
2021/08/26 04:34:25;;;;;;;9.95;2.70;;;14.80;99.90;;;;;;12493450;28;20056;-38
2021/08/26 04:40:27;;;;;;;13.80;3.30;;;14.80;99.90;;;;;;12483187;28;20103;-37
2021/08/26 04:46:29;;;;;;;8.23;3.10;;;14.90;99.90;;;;;;12510751;28;20049;-37
2021/08/26 04:52:31;;;;;;;10.93;3.15;;;14.80;99.90;;;;;;12497075;28;20049;-38
2021/08/26 04:58:34;;;;;;;11.57;2.80;;;14.80;99.90;;;;;;12513020;28;20092;-38
2021/08/26 05:04:36;;;;;;;13.27;3.00;;;14.90;99.90;;;;;;12514574;28;20127;-37
2021/08/26 05:10:39;;;;;;;14.48;3.08;;;14.90;99.90;;;;;;12515054;28;20037;-38
2021/08/26 05:16:41;;;;;;;16.98;3.58;;;14.80;99.90;;;;;;12509554;28;20053;-37
2021/08/26 05:22:45;;;;;;;;;;;14.70;99.90;;;;;;12501276;28;20587;-37
2021/08/26 05:28:47;;;;;;;12.50;2.65;;;14.80;99.90;;;;;;12492185;28;20050;-37
2021/08/26 05:34:49;;;;;;;13.93;2.90;;;14.80;99.90;;;;;;12512474;28;20085;-37
2021/08/26 05:40:59;;;;;;;15.05;3.28;;;14.80;99.90;;;;;;12504543;28;20086;-37
2021/08/26 05:47:05;;;;;;;17.83;3.40;;;14.80;99.90;;;;;;12504250;28;20069;-37
2021/08/26 05:53:07;;;;;;;16.10;3.08;;;14.70;99.90;;;;;;12501354;28;20045;-38
2021/08/26 05:59:09;;;;;;;13.05;3.22;;;14.80;99.90;;;;;;12501469;28;20049;-37
2021/08/26 06:05:11;;;;;;;16.85;3.17;;;14.80;99.90;;;;;;12505537;28;20599;-38
2021/08/26 06:11:14;;;;;;;17.65;3.00;;;14.80;99.90;;;;;;12490106;28;20057;-37
2021/08/26 06:17:16;;;;;;;11.80;2.80;;;14.90;99.90;;;;;;12506761;28;20064;-38
2021/08/26 06:23:18;;;;;;;12.88;3.00;;;14.90;99.90;;;;;;12493827;28;20470;-37
2021/08/26 06:29:22;;;;;;;18.00;3.25;;;14.90;99.90;;;;;;12510683;28;20546;-39
2021/08/26 06:35:24;;;;;;;16.47;3.20;;;15.00;99.90;;;;;;12500071;28;20458;-41
2021/08/26 06:41:26;;;;;;;14.38;3.10;;;15.10;99.90;;;;;;12507906;28;20459;-39
2021/08/26 06:47:29;;;;;;;14.25;3.38;;;15.20;99.90;;;;;;12488390;28;20673;-39
2021/08/26 06:53:31;;;;;;;19.48;3.45;;;15.20;99.90;;;;;;12498016;28;20155;-38
2021/08/26 06:59:34;;;;;;;18.02;3.88;;;15.40;99.90;;;;;;12501758;28;20097;-38
2021/08/26 07:05:37;;;;;;;19.30;2.72;;;15.30;99.90;;;;;;12500293;28;20053;-38
2021/08/26 07:11:43;;;;;;;15.60;3.08;;;15.50;99.90;;;;;;12502528;28;20052;-38
2021/08/26 07:17:49;;;;;;;17.77;3.03;;;15.70;99.90;;;;;;12506808;28;20155;-37
2021/08/26 07:23:51;;;;;;;21.85;3.40;;;15.50;99.90;;;;;;12493799;28;20160;-37
2021/08/26 07:29:53;;;;;;;18.65;3.05;;;15.70;99.90;;;;;;12492830;28;20061;-38
2021/08/26 07:35:55;;;;;;;16.80;3.47;;;15.70;99.90;;;;;;12488516;28;20504;-37
2021/08/26 07:41:58;;;;;;;13.27;2.83;;;15.80;99.90;;;;;;12502539;28;20053;-37
2021/08/26 07:48:00;;;;;;;22.00;3.20;;;15.90;99.90;;;;;;12506068;28;20057;-37
2021/08/26 07:54:02;;;;;;;14.30;3.15;;;16.10;99.90;;;;;;12507581;28;20200;-38
2021/08/26 08:00:06;;;;;;;25.75;3.13;;;16.30;99.90;;;;;;12495518;28;20045;-37
2021/08/26 08:06:08;;;;;;;15.07;2.97;;;16.30;99.90;;;;;;12506468;28;20456;-37
2021/08/26 08:12:10;;;;;;;18.38;3.00;;;16.30;99.90;;;;;;12500974;28;20045;-38
2021/08/26 08:18:12;;;;;;;14.02;3.60;;;16.40;99.90;;;;;;12503012;28;20455;-37
2021/08/26 08:24:14;;;;;;;17.75;3.47;;;16.40;99.90;;;;;;12493814;28;20068;-38
2021/08/26 08:30:16;;;;;;;16.27;3.30;;;16.50;99.90;;;;;;12510793;28;20083;-37
2021/08/26 08:36:20;;;;;;;15.70;3.53;;;16.80;99.90;;;;;;12506244;28;20060;-36
2021/08/26 08:42:23;;;;;;;13.98;3.13;;;16.80;99.90;;;;;;12509414;28;20156;-38
2021/08/26 08:48:30;;;;;;;20.52;3.63;;;16.90;99.90;;;;;;12508068;28;20049;-37
2021/08/26 08:54:33;;;;;;;14.88;2.78;;;17.00;99.90;;;;;;12507067;28;20477;-37
2021/08/26 09:00:37;;;;;;;17.05;3.22;;;17.20;99.90;;;;;;12488827;28;20041;-37
2021/08/26 09:06:40;;;;;;;20.20;3.53;;;17.20;99.90;;;;;;12504348;28;20071;-37
2021/08/26 09:12:46;;;;;;;16.08;2.90;;;16.90;99.90;;;;;;12487253;28;20073;-38
2021/08/26 09:18:48;;;;;;;17.73;3.17;;;17.40;99.90;;;;;;12507546;28;20049;-37
2021/08/26 09:24:54;;;;;;;15.90;3.40;;;17.50;99.90;;;;;;12498438;28;20397;-37
2021/08/26 09:31:28;;;;;;;13.52;3.08;;;17.50;99.90;;;;;;12483698;28;20055;-38
2021/08/26 09:37:31;;;;;;;11.40;3.20;;;17.60;99.90;;;;;;12472258;28;20153;-38
2021/08/26 09:43:33;;;;;;;13.68;2.90;;;17.70;99.90;;;;;;12497157;28;20037;-37
2021/08/26 09:49:39;;;;;;;17.40;3.42;;;17.70;99.90;;;;;;12504654;28;20057;-37
2021/08/26 09:55:50;;;;;;;22.02;4.28;;;17.80;99.90;;;;;;12484454;28;20080;-39
2021/08/26 10:02:05;;;;;;;13.02;3.28;;;17.90;99.90;;;;;;12505763;28;20547;-38
2021/08/26 10:08:11;;;;;;;12.60;2.88;;;17.90;99.90;;;;;;12498778;28;20049;-37
2021/08/26 10:14:15;;;;;;;16.90;2.95;;;17.70;99.90;;;;;;12500921;28;20049;-38
2021/08/26 10:20:17;;;;;;;11.98;2.65;;;17.80;99.90;;;;;;12486387;28;20049;-38
2021/08/26 10:26:20;;;;;;;15.93;3.28;;;17.80;99.90;;;;;;12507071;28;20843;-39
2021/08/26 10:32:24;;;;;;;16.25;3.08;;;17.80;99.90;;;;;;12509434;28;20037;-38
2021/08/26 10:38:36;;;;;;;15.85;2.67;;;17.60;99.90;;;;;;12509955;28;20073;-40
2021/08/26 10:45:08;;;;;;;19.67;3.60;;;17.60;99.90;;;;;;12504289;28;20045;-37
2021/08/26 10:51:16;;;;;;;15.63;3.53;;;17.60;99.90;;;;;;12505455;28;20634;-39
2021/08/26 10:57:29;;;;;;;11.85;2.88;;;18.20;99.90;;;;;;12507757;28;20069;-37
2021/08/26 11:03:34;;;;;;;14.85;2.80;;;18.60;99.90;;;;;;12511203;28;20049;-38
2021/08/26 11:09:39;;;;;;;10.98;2.50;;;19.40;99.90;;;;;;12509894;28;20469;-39
2021/08/26 11:15:41;;;;;;;19.65;3.17;;;19.50;99.90;;;;;;12506464;28;20093;-39
2021/08/26 11:21:46;;;;;;;14.73;3.05;;;19.20;99.90;;;;;;12501587;28;20130;-38
2021/08/26 11:27:50;;;;;;;11.68;2.65;;;18.80;99.90;;;;;;12502342;28;20477;-37
2021/08/26 11:33:52;;;;;;;12.02;2.50;;;18.60;99.90;;;;;;12506988;28;20581;-38
2021/08/26 11:40:03;;;;;;;14.02;2.75;;;18.40;99.90;;;;;;12512135;28;20084;-37
2021/08/26 11:46:10;;;;;;;12.23;2.95;;;18.40;99.90;;;;;;12489506;28;20056;-37
2021/08/26 11:52:15;;;;;;;9.38;2.50;;;18.40;99.90;;;;;;12507722;28;20069;-37
2021/08/26 11:58:17;;;;;;;18.08;3.35;;;18.40;99.90;;;;;;12499341;28;20053;-37
2021/08/26 12:04:19;;;;;;;11.07;2.70;;;18.60;99.90;;;;;;12502392;28;20076;-37
2021/08/26 12:10:31;;;;;;;9.88;2.35;;;18.60;99.90;;;;;;12504382;28;20049;-38
2021/08/26 12:16:34;;;;;;;9.90;2.10;;;18.90;99.90;;;;;;12500379;28;20728;-37
2021/08/26 12:22:43;;;;;;;8.88;2.53;;;19.30;99.90;;;;;;12501359;28;20087;-38
2021/08/26 12:29:03;;;;;;;9.30;2.83;;;19.00;99.90;;;;;;12502997;28;20049;-37
2021/08/26 12:35:25;;;;;;;13.20;2.88;;;18.70;99.90;;;;;;12503696;28;20091;-37
2021/08/26 12:41:27;;;;;;;13.85;3.08;;;18.20;99.90;;;;;;12500031;28;20053;-37
2021/08/26 12:47:31;;;;;;;12.15;3.50;;;17.70;99.90;;;;;;12510776;28;20494;-37
2021/08/26 12:53:33;;;;;;;;;;;17.40;99.90;;;;;;12511145;28;20140;-38
2021/08/26 12:59:40;;;;;;;3.15;1.00;;;16.90;99.90;;;;;;12512189;28;19929;-36
2021/08/26 13:05:48;;;;;;;4.10;1.05;;;15.70;99.90;;;;;;12515416;28;20073;-36
2021/08/26 13:12:17;;;;;;;4.00;1.30;;;14.90;99.90;;;;;;12513092;28;20421;-38
2021/08/26 13:18:19;;;;;;;5.93;1.50;;;14.80;99.90;;;;;;12517106;28;20052;-37
2021/08/26 13:24:23;;;;;;;5.78;1.92;;;14.90;99.90;;;;;;12522405;28;20515;-37
2021/08/26 13:30:28;;;;;;;9.23;2.00;;;15.40;99.90;;;;;;12499315;28;20132;-37
2021/08/26 13:36:32;;;;;;;9.57;2.30;;;15.80;99.90;;;;;;12514206;28;20375;-38
2021/08/26 13:42:34;;;;;;;8.05;2.05;;;15.60;99.90;;;;;;12507432;28;20076;-37
2021/08/26 13:48:36;;;;;;;6.90;2.33;;;15.60;99.90;;;;;;12511942;28;20045;-37
2021/08/26 13:54:40;;;;;;;5.45;2.17;;;16.30;99.90;;;;;;12515068;28;20045;-37
2021/08/26 14:00:46;;;;;;;11.43;1.98;;;17.00;99.90;;;;;;12502186;28;20056;-37
2021/08/26 14:06:52;;;;;;;7.55;1.67;;;17.40;99.90;;;;;;12513079;28;20049;-39
2021/08/26 14:12:55;;;;;;;4.67;0.83;;;17.80;99.90;;;;;;12511188;28;20088;-37
2021/08/26 14:19:01;;;;;;;1.73;0.63;;;17.40;99.90;;;;;;12510386;28;20057;-38
2021/08/26 14:25:05;;;;;;;3.58;0.63;;;17.30;99.90;;;;;;12511171;28;20048;-37
2021/08/26 14:31:08;;;;;;;3.97;0.90;;;17.60;99.90;;;;;;12508827;28;20044;-37
2021/08/26 14:37:12;;;;;;;3.30;0.77;;;17.90;99.90;;;;;;12508658;28;20051;-37
2021/08/26 14:43:14;;;;;;;8.73;0.95;;;18.30;99.90;;;;;;12491131;28;20505;-37
2021/08/26 14:49:17;;;;;;;6.30;0.52;;;18.70;99.90;;;;;;12506617;28;20045;-37
2021/08/26 14:55:21;;;;;;;6.55;0.80;;;18.10;99.90;;;;;;12507644;28;20052;-38
2021/08/26 15:01:28;;;;;;;4.50;0.75;;;18.10;99.90;;;;;;12504224;28;20452;-37
2021/08/26 15:07:32;;;;;;;3.15;0.75;;;17.90;99.90;;;;;;12508136;28;20425;-37
2021/08/26 15:13:34;;;;;;;3.83;0.65;;;17.90;99.90;;;;;;12508880;28;20063;-38
2021/08/26 15:19:36;;;;;;;2.83;0.60;;;18.10;99.90;;;;;;12484239;28;20101;-37
2021/08/26 15:25:38;;;;;;;2.88;0.70;;;17.50;99.90;;;;;;12504288;28;20041;-37
2021/08/26 15:31:40;;;;;;;2.97;0.50;;;17.10;99.90;;;;;;12490510;28;20045;-37
2021/08/26 15:37:42;;;;;;;6.95;0.70;;;17.10;99.90;;;;;;12506835;28;20049;-37
2021/08/26 15:43:44;;;;;;;4.72;0.60;;;17.80;99.90;;;;;;12492714;28;20041;-37
2021/08/26 15:49:46;;;;;;;4.15;0.55;;;18.10;99.90;;;;;;12502251;28;20053;-37
2021/08/26 15:55:50;;;;;;;6.65;0.65;;;18.10;99.90;;;;;;12504712;28;20131;-37
2021/08/26 16:02:00;;;;;;;3.70;0.60;;;18.30;99.90;;;;;;12508047;28;20045;-37
2021/08/26 16:08:03;;;;;;;7.20;0.85;;;17.60;99.90;;;;;;12506479;28;20057;-37
2021/08/26 16:14:06;;;;;;;4.50;0.80;;;17.20;99.90;;;;;;12485435;28;20059;-37
2021/08/26 16:20:10;;;;;;;6.22;0.60;;;17.00;99.90;;;;;;12504309;28;20541;-37
2021/08/26 16:26:12;;;;;;;6.78;0.90;;;17.10;99.90;;;;;;12503481;28;20090;-37
2021/08/26 16:32:14;;;;;;;3.92;0.80;;;17.50;99.90;;;;;;12506283;28;20086;-37
2021/08/26 16:38:16;;;;;;;4.25;0.70;;;17.00;99.90;;;;;;12512723;28;20878;-37
2021/08/26 16:44:18;;;;;;;3.72;0.75;;;16.60;99.90;;;;;;12515997;28;20049;-37
2021/08/26 16:50:21;;;;;;;5.22;0.98;;;16.30;99.90;;;;;;12514669;28;20498;-36
2021/08/26 16:56:23;;;;;;;4.60;0.70;;;16.00;99.90;;;;;;12511788;28;20053;-38
2021/08/26 17:02:26;;;;;;;2.15;0.43;;;15.90;99.90;;;;;;12514971;28;20052;-37
2021/08/26 17:08:29;;;;;;;3.67;0.68;;;16.00;99.90;;;;;;12516054;28;20049;-37
2021/08/26 17:14:31;;;;;;;4.45;0.68;;;16.40;99.90;;;;;;12511750;28;20470;-37
2021/08/26 17:20:34;;;;;;;3.88;0.65;;;16.60;99.90;;;;;;12517208;28;20041;-37
2021/08/26 17:26:37;;;;;;;3.63;0.55;;;16.40;99.90;;;;;;12501639;28;20439;-37
2021/08/26 17:32:40;;;;;;;7.00;0.88;;;16.60;99.90;;;;;;12513266;28;20045;-37
2021/08/26 17:38:42;;;;;;;1.80;0.52;;;16.30;99.90;;;;;;12516226;28;20106;-37
2021/08/26 17:44:44;;;;;;;4.63;0.77;;;16.10;99.90;;;;;;12501187;28;20045;-37
2021/08/26 17:50:46;;;;;;;5.30;1.13;;;15.90;99.90;;;;;;12513481;28;20049;-37
2021/08/26 17:56:48;;;;;;;4.25;1.00;;;15.70;99.90;;;;;;12513811;28;20052;-36
2021/08/26 18:02:50;;;;;;;3.13;0.90;;;15.50;99.90;;;;;;12507956;28;20917;-38
2021/08/26 18:08:52;;;;;;;3.05;0.68;;;15.30;99.90;;;;;;12516557;28;20045;-37
2021/08/26 18:14:54;;;;;;;7.07;0.60;;;15.30;99.90;;;;;;12514029;28;20049;-36
2021/08/26 18:20:56;;;;;;;5.43;0.75;;;15.20;99.90;;;;;;12511129;28;20061;-37
2021/08/26 18:26:58;;;;;;;3.17;0.73;;;15.10;99.90;;;;;;12512337;28;20072;-37
2021/08/26 18:33:00;;;;;;;3.47;0.52;;;15.10;99.90;;;;;;12512764;28;20052;-37
2021/08/26 18:39:02;;;;;;;4.40;0.70;;;14.90;99.90;;;;;;12515330;28;20122;-37
2021/08/26 18:45:04;;;;;;;5.03;0.82;;;15.00;99.90;;;;;;12519707;28;20045;-37
2021/08/26 18:51:07;;;;;;;6.75;0.77;;;14.90;99.90;;;;;;12519202;28;20053;-38
2021/08/26 18:57:09;;;;;;;2.70;0.85;;;15.00;99.90;;;;;;12512574;28;20132;-37
2021/08/26 19:03:13;;;;;;;4.22;1.33;;;14.90;99.90;;;;;;12510783;28;20049;-36
2021/08/26 19:09:15;;;;;;;8.88;1.13;;;14.90;99.90;;;;;;12505195;28;20049;-37
2021/08/26 19:15:17;;;;;;;5.43;1.77;;;14.90;99.90;;;;;;12506020;28;20048;-37
2021/08/26 19:21:19;;;;;;;3.63;0.82;;;14.90;99.90;;;;;;12505463;28;20092;-37
2021/08/26 19:27:23;;;;;;;2.40;0.70;;;14.80;99.90;;;;;;12509417;28;20114;-37
2021/08/26 19:33:25;;;;;;;6.75;0.95;;;15.00;99.90;;;;;;12504248;28;20135;-38
2021/08/26 19:39:27;;;;;;;6.55;0.98;;;14.90;99.90;;;;;;12491613;28;20140;-37
2021/08/26 19:45:29;;;;;;;4.28;0.73;;;15.00;99.90;;;;;;12503519;28;20044;-37
2021/08/26 19:51:32;;;;;;;4.30;0.90;;;14.90;99.90;;;;;;12506109;28;20059;-37
2021/08/26 19:57:34;;;;;;;6.97;0.90;;;15.00;99.90;;;;;;12494935;28;20090;-37
2021/08/26 20:03:36;;;;;;;4.30;0.85;;;14.90;99.90;;;;;;12485721;28;20045;-37
2021/08/26 20:09:38;;;;;;;3.30;0.95;;;15.00;99.90;;;;;;12506089;28;20045;-37
2021/08/26 20:15:40;;;;;;;5.32;1.42;;;15.00;99.90;;;;;;12505562;28;20049;-37
2021/08/26 20:21:42;;;;;;;8.00;1.27;;;14.90;99.90;;;;;;12513568;28;20053;-37
2021/08/26 20:27:45;;;;;;;3.58;0.85;;;14.80;99.90;;;;;;12515151;28;20845;-37
2021/08/26 20:33:47;;;;;;;4.20;0.70;;;14.90;99.90;;;;;;12509678;28;20444;-38
2021/08/26 20:39:48;;;;;;;5.13;1.00;;;14.90;99.90;;;;;;12514403;28;20117;-40
2021/08/26 20:45:52;;;;;;;3.22;0.98;;;14.70;99.90;;;;;;12511138;28;20069;-37
2021/08/26 20:51:54;;;;;;;5.18;0.77;;;14.70;99.90;;;;;;12517213;28;20045;-37
2021/08/26 20:57:56;;;;;;;13.85;1.20;;;14.70;99.90;;;;;;12515087;28;20056;-37
2021/08/26 21:03:57;;;;;;;6.78;1.00;;;14.70;99.90;;;;;;12516406;28;20048;-37
2021/08/26 21:09:59;;;;;;;8.48;1.35;;;14.70;99.90;;;;;;12516189;28;20055;-37
2021/08/26 21:16:01;;;;;;;5.32;1.30;;;14.70;99.90;;;;;;12511796;28;20069;-37
2021/08/26 21:22:03;;;;;;;6.13;1.38;;;14.80;99.90;;;;;;12509468;28;20045;-38
2021/08/26 21:28:05;;;;;;;5.78;1.45;;;14.80;99.90;;;;;;12514945;28;20049;-37
2021/08/26 21:34:07;;;;;;;8.48;1.15;;;14.70;99.90;;;;;;12514795;28;20140;-38
2021/08/26 21:40:10;;;;;;;8.98;1.90;;;14.60;99.90;;;;;;12514950;28;20631;-37
2021/08/26 21:46:12;;;;;;;7.53;1.70;;;14.60;99.90;;;;;;12516690;28;20436;-37
2021/08/26 21:52:15;;;;;;;6.60;1.35;;;14.50;99.90;;;;;;12517160;28;20775;-37
2021/08/26 21:58:17;;;;;;;5.80;1.40;;;14.40;99.90;;;;;;12511822;28;20093;-37
2021/08/26 22:04:20;;;;;;;6.53;1.20;;;14.50;99.90;;;;;;12515813;28;20098;-38
2021/08/26 22:10:22;;;;;;;10.48;1.88;;;14.40;99.90;;;;;;12513606;28;20045;-38
2021/08/26 22:16:24;;;;;;;8.48;1.67;;;14.50;99.90;;;;;;12514101;28;20114;-37
2021/08/26 22:22:29;;;;;;;5.63;1.55;;;14.50;99.90;;;;;;12512043;28;20516;-37
2021/08/26 22:28:31;;;;;;;10.52;1.85;;;14.50;99.90;;;;;;12510330;28;20053;-38
2021/08/26 22:34:33;;;;;;;6.75;1.50;;;14.50;99.90;;;;;;12504435;28;20123;-37
2021/08/26 22:40:35;;;;;;;11.35;1.80;;;14.50;99.90;;;;;;12504837;28;20143;-37
2021/08/26 22:46:37;;;;;;;10.90;1.77;;;14.30;99.90;;;;;;12508814;28;20466;-37
2021/08/26 22:52:40;;;;;;;8.60;1.40;;;14.40;99.90;;;;;;12510695;28;20405;-38
2021/08/26 22:58:42;;;;;;;9.50;1.90;;;14.40;99.90;;;;;;12506148;28;20659;-38
2021/08/26 23:04:44;;;;;;;7.35;1.83;;;14.30;99.90;;;;;;12509293;28;20041;-38
2021/08/26 23:10:46;;;;;;;6.65;1.38;;;14.30;99.90;;;;;;12507791;28;20045;-37
2021/08/26 23:16:48;;;;;;;8.70;2.35;;;14.20;99.90;;;;;;12507750;28;20041;-38
2021/08/26 23:22:49;;;;;;;13.10;1.98;;;14.20;99.90;;;;;;12497828;28;20776;-38
2021/08/26 23:28:52;;;;;;;8.57;1.52;;;14.10;99.90;;;;;;12512178;28;20102;-37
2021/08/26 23:34:53;;;;;;;9.55;1.70;;;14.20;99.90;;;;;;12501657;28;20045;-37
2021/08/26 23:40:55;;;;;;;9.80;2.03;;;14.10;99.90;;;;;;12500018;28;20511;-37
2021/08/26 23:46:57;;;;;;;7.30;1.80;;;14.10;99.90;;;;;;12502687;28;20107;-37
2021/08/26 23:52:59;;;;;;;11.73;2.33;;;14.00;99.90;;;;;;12498806;28;20052;-37
2021/08/26 23:59:02;;;;;;;11.00;1.80;;;14.00;99.90;;;;;;12500972;28;20049;-37
